Etusivu
METAR-TAF:

METAR-TAF

Lentoasemat :

Llano Municipal Airport

Llano, Texas, Yhdysvallat

Leveyspiiri: 30-47-01N, Pituuspiiri: 098-39-43W, korkeus merenpinnasta: 336 m

Tämänhetkinen sää

Tämä raportti tehtiin 24 minuuttia sitten, kello 08.10 UTC
tyyntä
Lämpötila 21°C
Kosteus 88%
Ilmanpaine 1018 hPa
Näkyvyys: 16.1 km
selkeää

METAR: KAQO 260810Z AUTO 00000KT 10SM CLR 21/19 A3007 RMK AO2

Aika: 03:34 (08:34 UTC)


TAF: puuttuu

Säähavainnot ja -ennusteet yli 4000 lentoasemalta (METAR- ja TAF-raportit).

Käytössä olevat sääasemat on merkitty karttaan keltaisilla ja punaisilla pisteillä.

Aseta hiiri pisteen päälle nähdäksesi sääaseman nimen.

Klikkaa sitten nähdäksesi säähavainnot ja -ennusteet.

Kartan vaihtaminen: klikkaa mustalla rastilla varustettuja vihreitä pisteitä, niin voit zoomata sisään; viivalla varustettua vihreää pistettä, niin voit zoomata ulos tai vihreitä nuolia, niin pääset viereisille kartoille.


METAR-TAF: